Terminal Aerodrome Forecast
Issued by NWS

Home | Current Version | Previous Version | Text Only | Print | Product List | Glossary On
Versions: 1 2 3 4 5 6 7 8 9 10 11 12 13
000
FTAK31 PAJN 250300 AAA
TAFAKT
TAF AMD
PAKT 250329Z 2503/2524 13012KT P6SM -SHRA SCT015 BKN024 OVC035
      TEMPO 2503/2504 5SM -SHRA BR
     FM250900 15010KT 6SM -SHRA SCT012 OVC025
     FM251300 15012KT 6SM -RA BR SCT009 OVC018
     FM251600 14015G25KT 6SM -RA BR SCT008 OVC015
      AMD LTD TO CLD VIS AND WIND 2506/2515=

USA.gov is the U.S. government's official web portal to all federal, state and local government web resources and services.